Ultra Regina — HPHA — position and weather

sailwx.info

Track history (hours):
 
Tides and Currents Weather Stations Pressure Air Temp Water Temp Dewpoint Dewpoint Depression Visibility Wind Speed Wind Dir Waves Ship Positions

Ultra Regina

Last reported at 2018-Jul-07 19:42 UTC. Time now 2018-Aug-14 15:18 UTC.
Position N 27°22' W 014°06'.
Warning: this ship's position is 37 days out of date.

Length 200 m; draft 12.5 m.

Type: Cargo ship. MMSI: 352057000.

Date/timePositionNaut miles runAvg speedWind from/ knotsBaromVisibWave heightAir tempDewpointWater temp
2018-Jul-07 19:42N 27°22' W 014°06'413.1
2018-Jul-07 19:22N 27°25' W 014°03'613.2
2018-Jul-07 18:55N 27°30' W 013°59'813.3
2018-Jul-07 18:18N 27°37' W 013°54'413.3
2018-Jul-07 17:58N 27°40' W 013°51'813.3
2018-Jul-07 17:21N 27°47' W 013°45'513.3
2018-Jul-07 17:00N 27°51' W 013°42'713.2
2018-Jul-07 16:30N 27°56' W 013°38'812.9
2018-Jul-07 15:55N 28°03' W 013°33'612.9
2018-Jul-07 15:29N 28°07' W 013°30'1112.8
2018-Jul-07 14:38N 28°16' W 013°23'412.9
2018-Jul-07 14:18N 28°20' W 013°20'60313.3
2018-Jul-05 16:51N 35°58' W 005°38'411.0
2018-Jul-05 16:30N 35°59' W 005°33'510.1
2018-Jul-05 16:00N 36°01' W 005°27'5 9.9
2018-Jul-05 15:30N 36°04' W 005°23'3 5.4
2018-Jul-05 14:58N 36°07' W 005°22'0 0.0
2018-Jul-05 14:28N 36°07' W 005°22'0 0.1
2018-Jul-05 13:28N 36°07' W 005°22'0 0.3
2018-Jul-05 12:58N 36°07' W 005°22'0 0.1
2018-Jul-05 12:28N 36°07' W 005°22'0 0.0
2018-Jul-05 11:58N 36°07' W 005°22'0 0.1
2018-Jul-05 09:55N 36°07' W 005°22'0 0.1
2018-Jul-05 09:28N 36°07' W 005°22'0 0.1
2018-Jul-05 07:52N 36°07' W 005°22'0 0.0
2018-Jul-05 06:25N 36°07' W 005°22'0 0.4
2018-Jul-05 06:00N 36°07' W 005°22'1 2.1
2018-Jul-05 05:27N 36°06' W 005°21'3 6.4
2018-Jul-05 05:00N 36°06' W 005°18'3 6.4
2018-Jul-05 04:30N 36°06' W 005°14'0 0.4
2018-Jul-05 03:59N 36°05' W 005°14'1 1.9
2018-Jul-05 03:30N 36°06' W 005°13'22011.3
2018-Jul-04 08:03N 37°19' W 000°55'113.1
2018-Jul-04 07:58N 37°20' W 000°54'613.1
2018-Jul-04 07:31N 37°24' W 000°48'713.2
2018-Jul-04 07:00N 37°28' W 000°42'613.2
2018-Jul-04 06:30N 37°33' W 000°35'612.6
2018-Jul-04 06:01N 37°38' W 000°32'713.4
2018-Jul-04 05:31N 37°45' W 000°31'713.6
2018-Jul-04 04:59N 37°52' W 000°31'613.3
2018-Jul-04 04:30N 37°58' W 000°31'613.0
2018-Jul-04 04:01N 38°04' W 000°28'  
2018-Jun-29 23:08N 38°21' E 000°05'813.2
2018-Jun-29 22:32N 38°28' E 000°10'5911.1
2018-Jun-29 17:13N 39°23' W 000°14'312.6
2018-Jun-29 17:00N 39°25' W 000°17'2 5.1
2018-Jun-29 16:31N 39°27' W 000°19'0 0.0
2018-Jun-29 16:00N 39°27' W 000°19'0 0.0
2018-Jun-29 15:30N 39°27' W 000°19'0 0.0
2018-Jun-29 15:00N 39°27' W 000°19'0 0.0
2018-Jun-29 14:30N 39°27' W 000°19'0 0.0
2018-Jun-29 14:00N 39°27' W 000°19'0 0.0
2018-Jun-29 13:30N 39°27' W 000°19'0 0.0
2018-Jun-29 13:00N 39°27' W 000°19'0 0.0
2018-Jun-29 12:30N 39°27' W 000°19'0 0.0
2018-Jun-29 12:00N 39°27' W 000°19'0 0.0
2018-Jun-29 11:30N 39°27' W 000°19'0 0.0
2018-Jun-29 11:00N 39°27' W 000°19'0 0.0
2018-Jun-29 10:30N 39°27' W 000°19'0 0.0
2018-Jun-29 10:00N 39°27' W 000°19'0 0.0
2018-Jun-29 09:30N 39°27' W 000°19'0 0.0
2018-Jun-29 09:00N 39°27' W 000°19'0 0.0
2018-Jun-29 08:30N 39°27' W 000°19'0 0.0
2018-Jun-29 08:00N 39°27' W 000°19'0 0.0
2018-Jun-29 07:30N 39°27' W 000°19'0 0.0
2018-Jun-29 07:00N 39°27' W 000°19'0 0.0
2018-Jun-29 06:30N 39°27' W 000°19'0 0.0
2018-Jun-29 06:00N 39°27' W 000°19'0 0.0
2018-Jun-29 05:30N 39°27' W 000°19'0 0.0
2018-Jun-29 05:00N 39°27' W 000°19'0 0.0
2018-Jun-29 04:30N 39°27' W 000°19'0 0.0
2018-Jun-29 04:00N 39°27' W 000°19'0 0.0
2018-Jun-29 03:30N 39°27' W 000°19'0 0.0
2018-Jun-29 03:00N 39°27' W 000°19'0 0.0
2018-Jun-29 02:30N 39°27' W 000°19'0 0.0
2018-Jun-29 02:00N 39°27' W 000°19'0 0.0
2018-Jun-29 01:30N 39°27' W 000°19'0 0.0
2018-Jun-29 01:00N 39°27' W 000°19'0 0.0
2018-Jun-29 00:30N 39°27' W 000°19'0 0.0
2018-Jun-29 00:00N 39°27' W 000°19'0 0.0
2018-Jun-28 23:30N 39°27' W 000°19'0 0.0
2018-Jun-28 23:00N 39°27' W 000°19'0 0.0
2018-Jun-28 22:30N 39°27' W 000°19'0 0.0
2018-Jun-28 22:00N 39°27' W 000°19'0 0.0
2018-Jun-28 21:30N 39°27' W 000°19'0 0.0
2018-Jun-28 21:00N 39°27' W 000°19'0 0.0
2018-Jun-28 20:30N 39°27' W 000°19'0 0.0
2018-Jun-28 20:00N 39°27' W 000°19'0 0.0
2018-Jun-28 19:30N 39°27' W 000°19'0 0.0
2018-Jun-28 19:00N 39°27' W 000°19'0 0.0
2018-Jun-28 18:30N 39°27' W 000°19'0 0.0
2018-Jun-28 18:00N 39°27' W 000°19'0 0.0
2018-Jun-28 17:30N 39°27' W 000°19'0 0.0
2018-Jun-28 17:00N 39°27' W 000°19'0 0.0
2018-Jun-28 16:30N 39°27' W 000°19'0 0.0
2018-Jun-28 16:00N 39°27' W 000°19'0 0.0
2018-Jun-28 15:30N 39°27' W 000°19'0 0.0
2018-Jun-28 15:00N 39°27' W 000°19'0 0.0
2018-Jun-28 14:30N 39°27' W 000°19'0 0.0
2018-Jun-28 14:00N 39°27' W 000°19'0 0.0
2018-Jun-28 13:30N 39°27' W 000°19'0 0.0
2018-Jun-28 13:00N 39°27' W 000°19'0 0.0
2018-Jun-28 12:30N 39°27' W 000°19'0 0.0
2018-Jun-28 12:00N 39°27' W 000°19'0 0.0
2018-Jun-28 11:30N 39°27' W 000°19'0 0.0
2018-Jun-28 11:00N 39°27' W 000°19'0 0.0
2018-Jun-28 10:30N 39°27' W 000°19'0 0.0
2018-Jun-28 10:00N 39°27' W 000°19'0 0.0
2018-Jun-28 09:30N 39°27' W 000°19'0 0.0
2018-Jun-28 09:00N 39°27' W 000°19'0 0.0
2018-Jun-28 08:30N 39°27' W 000°19'0 0.0
2018-Jun-28 08:00N 39°27' W 000°19'0 0.0
2018-Jun-28 07:30N 39°27' W 000°19'0 0.0
2018-Jun-28 07:00N 39°27' W 000°19'0 0.0
2018-Jun-28 06:30N 39°27' W 000°19'0 0.0
2018-Jun-28 06:00N 39°27' W 000°19'0 0.0
2018-Jun-28 05:30N 39°27' W 000°19'0 0.0
2018-Jun-28 05:00N 39°27' W 000°19'0 0.0
2018-Jun-28 04:27N 39°27' W 000°19'0 0.0
2018-Jun-28 04:00N 39°27' W 000°19'0 0.0
2018-Jun-28 03:30N 39°27' W 000°19'0 0.0
2018-Jun-28 03:00N 39°27' W 000°19'0 0.0
2018-Jun-28 02:30N 39°27' W 000°19'0 0.0
2018-Jun-28 02:00N 39°27' W 000°19'0 0.0
2018-Jun-28 01:30N 39°27' W 000°19'0 0.0
2018-Jun-28 01:00N 39°27' W 000°19'0 0.0
2018-Jun-28 00:30N 39°27' W 000°19'0 0.0
2018-Jun-28 00:00N 39°27' W 000°19'0 0.0
2018-Jun-27 23:30N 39°27' W 000°19'0 0.0
2018-Jun-27 23:00N 39°27' W 000°19'0 0.0
2018-Jun-27 22:30N 39°27' W 000°19'0 0.0
2018-Jun-27 22:00N 39°27' W 000°19'0 0.0
2018-Jun-27 21:30N 39°27' W 000°19'0 0.0
2018-Jun-27 21:00N 39°27' W 000°19'0 0.0
2018-Jun-27 20:30N 39°27' W 000°19'0 0.0
2018-Jun-27 20:00N 39°27' W 000°19'  
Track history (hours):
 
Tides and Currents Weather Stations Pressure Air Temp Water Temp Dewpoint Dewpoint Depression Visibility Wind Speed Wind Dir Waves Ship Positions

Ultra Regina

Last reported at 2018-Jul-07 19:42 UTC. Time now 2018-Aug-14 15:18 UTC.
Position N 27°22' W 014°06'.
Warning: this ship's position is 37 days out of date.

Length 200 m; draft 12.5 m.

Type: Cargo ship. MMSI: 352057000.

Date/timePositionNaut miles runAvg speedWind from/ knotsBaromVisibWave heightAir tempDewpointWater temp
2018-Jul-07 19:42N 27°22' W 014°06'413.1
2018-Jul-07 19:22N 27°25' W 014°03'613.2
2018-Jul-07 18:55N 27°30' W 013°59'813.3
2018-Jul-07 18:18N 27°37' W 013°54'413.3
2018-Jul-07 17:58N 27°40' W 013°51'813.3
2018-Jul-07 17:21N 27°47' W 013°45'513.3
2018-Jul-07 17:00N 27°51' W 013°42'713.2
2018-Jul-07 16:30N 27°56' W 013°38'812.9
2018-Jul-07 15:55N 28°03' W 013°33'612.9
2018-Jul-07 15:29N 28°07' W 013°30'1112.8
2018-Jul-07 14:38N 28°16' W 013°23'412.9
2018-Jul-07 14:18N 28°20' W 013°20'60313.3
2018-Jul-05 16:51N 35°58' W 005°38'411.0
2018-Jul-05 16:30N 35°59' W 005°33'510.1
2018-Jul-05 16:00N 36°01' W 005°27'5 9.9
2018-Jul-05 15:30N 36°04' W 005°23'3 5.4
2018-Jul-05 14:58N 36°07' W 005°22'0 0.0
2018-Jul-05 14:28N 36°07' W 005°22'0 0.1
2018-Jul-05 13:28N 36°07' W 005°22'0 0.3
2018-Jul-05 12:58N 36°07' W 005°22'0 0.1
2018-Jul-05 12:28N 36°07' W 005°22'0 0.0
2018-Jul-05 11:58N 36°07' W 005°22'0 0.1
2018-Jul-05 09:55N 36°07' W 005°22'0 0.1
2018-Jul-05 09:28N 36°07' W 005°22'0 0.1
2018-Jul-05 07:52N 36°07' W 005°22'0 0.0
2018-Jul-05 06:25N 36°07' W 005°22'0 0.4
2018-Jul-05 06:00N 36°07' W 005°22'1 2.1
2018-Jul-05 05:27N 36°06' W 005°21'3 6.4
2018-Jul-05 05:00N 36°06' W 005°18'3 6.4
2018-Jul-05 04:30N 36°06' W 005°14'0 0.4
2018-Jul-05 03:59N 36°05' W 005°14'1 1.9
2018-Jul-05 03:30N 36°06' W 005°13'22011.3
2018-Jul-04 08:03N 37°19' W 000°55'113.1
2018-Jul-04 07:58N 37°20' W 000°54'613.1
2018-Jul-04 07:31N 37°24' W 000°48'713.2
2018-Jul-04 07:00N 37°28' W 000°42'613.2
2018-Jul-04 06:30N 37°33' W 000°35'612.6
2018-Jul-04 06:01N 37°38' W 000°32'713.4
2018-Jul-04 05:31N 37°45' W 000°31'713.6
2018-Jul-04 04:59N 37°52' W 000°31'613.3
2018-Jul-04 04:30N 37°58' W 000°31'613.0
2018-Jul-04 04:01N 38°04' W 000°28'  
2018-Jun-29 23:08N 38°21' E 000°05'813.2
2018-Jun-29 22:32N 38°28' E 000°10'5911.1
2018-Jun-29 17:13N 39°23' W 000°14'312.6
2018-Jun-29 17:00N 39°25' W 000°17'2 5.1
2018-Jun-29 16:31N 39°27' W 000°19'0 0.0
2018-Jun-29 16:00N 39°27' W 000°19'0 0.0
2018-Jun-29 15:30N 39°27' W 000°19'0 0.0
2018-Jun-29 15:00N 39°27' W 000°19'0 0.0
2018-Jun-29 14:30N 39°27' W 000°19'0 0.0
2018-Jun-29 14:00N 39°27' W 000°19'0 0.0
2018-Jun-29 13:30N 39°27' W 000°19'0 0.0
2018-Jun-29 13:00N 39°27' W 000°19'0 0.0
2018-Jun-29 12:30N 39°27' W 000°19'0 0.0
2018-Jun-29 12:00N 39°27' W 000°19'0 0.0
2018-Jun-29 11:30N 39°27' W 000°19'0 0.0
2018-Jun-29 11:00N 39°27' W 000°19'0 0.0
2018-Jun-29 10:30N 39°27' W 000°19'0 0.0
2018-Jun-29 10:00N 39°27' W 000°19'0 0.0
2018-Jun-29 09:30N 39°27' W 000°19'0 0.0
2018-Jun-29 09:00N 39°27' W 000°19'0 0.0
2018-Jun-29 08:30N 39°27' W 000°19'0 0.0
2018-Jun-29 08:00N 39°27' W 000°19'0 0.0
2018-Jun-29 07:30N 39°27' W 000°19'0 0.0
2018-Jun-29 07:00N 39°27' W 000°19'0 0.0
2018-Jun-29 06:30N 39°27' W 000°19'0 0.0
2018-Jun-29 06:00N 39°27' W 000°19'0 0.0
2018-Jun-29 05:30N 39°27' W 000°19'0 0.0
2018-Jun-29 05:00N 39°27' W 000°19'0 0.0
2018-Jun-29 04:30N 39°27' W 000°19'0 0.0
2018-Jun-29 04:00N 39°27' W 000°19'0 0.0
2018-Jun-29 03:30N 39°27' W 000°19'0 0.0
2018-Jun-29 03:00N 39°27' W 000°19'0 0.0
2018-Jun-29 02:30N 39°27' W 000°19'0 0.0
2018-Jun-29 02:00N 39°27' W 000°19'0 0.0
2018-Jun-29 01:30N 39°27' W 000°19'0 0.0
2018-Jun-29 01:00N 39°27' W 000°19'0 0.0
2018-Jun-29 00:30N 39°27' W 000°19'0 0.0
2018-Jun-29 00:00N 39°27' W 000°19'0 0.0
2018-Jun-28 23:30N 39°27' W 000°19'0 0.0
2018-Jun-28 23:00N 39°27' W 000°19'0 0.0
2018-Jun-28 22:30N 39°27' W 000°19'0 0.0
2018-Jun-28 22:00N 39°27' W 000°19'0 0.0
2018-Jun-28 21:30N 39°27' W 000°19'0 0.0
2018-Jun-28 21:00N 39°27' W 000°19'0 0.0
2018-Jun-28 20:30N 39°27' W 000°19'0 0.0
2018-Jun-28 20:00N 39°27' W 000°19'0 0.0
2018-Jun-28 19:30N 39°27' W 000°19'0 0.0
2018-Jun-28 19:00N 39°27' W 000°19'0 0.0
2018-Jun-28 18:30N 39°27' W 000°19'0 0.0
2018-Jun-28 18:00N 39°27' W 000°19'0 0.0
2018-Jun-28 17:30N 39°27' W 000°19'0 0.0
2018-Jun-28 17:00N 39°27' W 000°19'0 0.0
2018-Jun-28 16:30N 39°27' W 000°19'0 0.0
2018-Jun-28 16:00N 39°27' W 000°19'0 0.0
2018-Jun-28 15:30N 39°27' W 000°19'0 0.0
2018-Jun-28 15:00N 39°27' W 000°19'0 0.0
2018-Jun-28 14:30N 39°27' W 000°19'0 0.0
2018-Jun-28 14:00N 39°27' W 000°19'0 0.0
2018-Jun-28 13:30N 39°27' W 000°19'0 0.0
2018-Jun-28 13:00N 39°27' W 000°19'0 0.0
2018-Jun-28 12:30N 39°27' W 000°19'0 0.0
2018-Jun-28 12:00N 39°27' W 000°19'0 0.0
2018-Jun-28 11:30N 39°27' W 000°19'0 0.0
2018-Jun-28 11:00N 39°27' W 000°19'0 0.0
2018-Jun-28 10:30N 39°27' W 000°19'0 0.0
2018-Jun-28 10:00N 39°27' W 000°19'0 0.0
2018-Jun-28 09:30N 39°27' W 000°19'0 0.0
2018-Jun-28 09:00N 39°27' W 000°19'0 0.0
2018-Jun-28 08:30N 39°27' W 000°19'0 0.0
2018-Jun-28 08:00N 39°27' W 000°19'0 0.0
2018-Jun-28 07:30N 39°27' W 000°19'0 0.0
2018-Jun-28 07:00N 39°27' W 000°19'0 0.0
2018-Jun-28 06:30N 39°27' W 000°19'0 0.0
2018-Jun-28 06:00N 39°27' W 000°19'0 0.0
2018-Jun-28 05:30N 39°27' W 000°19'0 0.0
2018-Jun-28 05:00N 39°27' W 000°19'0 0.0
2018-Jun-28 04:27N 39°27' W 000°19'0 0.0
2018-Jun-28 04:00N 39°27' W 000°19'0 0.0
2018-Jun-28 03:30N 39°27' W 000°19'0 0.0
2018-Jun-28 03:00N 39°27' W 000°19'0 0.0
2018-Jun-28 02:30N 39°27' W 000°19'0 0.0
2018-Jun-28 02:00N 39°27' W 000°19'0 0.0
2018-Jun-28 01:30N 39°27' W 000°19'0 0.0
2018-Jun-28 01:00N 39°27' W 000°19'0 0.0
2018-Jun-28 00:30N 39°27' W 000°19'0 0.0
2018-Jun-28 00:00N 39°27' W 000°19'0 0.0
2018-Jun-27 23:30N 39°27' W 000°19'0 0.0
2018-Jun-27 23:00N 39°27' W 000°19'0 0.0
2018-Jun-27 22:30N 39°27' W 000°19'0 0.0
2018-Jun-27 22:00N 39°27' W 000°19'0 0.0
2018-Jun-27 21:30N 39°27' W 000°19'0 0.0
2018-Jun-27 21:00N 39°27' W 000°19'0 0.0
2018-Jun-27 20:30N 39°27' W 000°19'0 0.0
2018-Jun-27 20:00N 39°27' W 000°19'  

Dump ship's entire track history